Time;durP1;ratioP1;P1;durP2;ratioP2;P2;SDS_P1;SDS_P2;PMS_P1;PMS_P2;Temp;Humidity;BMP_temperature;BMP_pressure;BME280_temperature;BME280_humidity;BME280_pressure;Samples;Min_cycle;Max_cycle;Signal;HPM_P1;HPM_P2
2023/11/08 00:01:53;;;;;;;8.73;3.90;;;9.70;99.90;;;;;;5032745;28;20045;-64
2023/11/08 00:04:19;;;;;;;4.75;3.60;;;9.70;99.90;;;;;;5032609;28;20030;-53
2023/11/08 00:06:45;;;;;;;7.70;3.35;;;9.70;99.90;;;;;;5033999;28;20068;-50
2023/11/08 00:09:12;;;;;;;8.45;3.90;;;9.70;99.90;;;;;;5038507;28;20060;-52
2023/11/08 00:11:38;;;;;;;13.43;4.00;;;9.70;99.90;;;;;;5036813;28;20100;-53
2023/11/08 00:14:08;;;;;;;9.48;3.88;;;9.70;99.90;;;;;;5034844;28;20036;-52
2023/11/08 00:16:34;;;;;;;12.02;3.72;;;9.60;99.90;;;;;;5036105;28;20067;-51
2023/11/08 00:19:00;;;;;;;6.35;3.92;;;9.60;99.90;;;;;;5036436;28;20024;-52
2023/11/08 00:21:28;;;;;;;11.43;4.50;;;9.60;99.90;;;;;;5036468;28;20525;-51
2023/11/08 00:23:54;;;;;;;9.00;4.88;;;9.60;99.90;;;;;;5036601;28;20430;-51
2023/11/08 00:26:20;;;;;;;10.70;4.45;;;9.60;99.90;;;;;;5036217;28;20108;-50
2023/11/08 00:28:46;;;;;;;8.73;4.47;;;9.60;99.90;;;;;;5036295;28;20529;-51
2023/11/08 00:31:12;;;;;;;6.68;3.85;;;9.60;99.90;;;;;;5036228;28;20033;-52
2023/11/08 00:33:38;;;;;;;8.95;4.28;;;9.60;99.90;;;;;;5034700;28;20029;-53
2023/11/08 00:36:04;;;;;;;13.63;4.25;;;9.60;99.90;;;;;;5035728;28;20040;-50
2023/11/08 00:38:29;;;;;;;7.60;4.45;;;9.60;99.90;;;;;;5036152;28;20022;-49
2023/11/08 00:41:13;;;;;;;7.93;4.75;;;9.60;99.90;;;;;;5036076;28;20482;-52
2023/11/08 00:43:41;;;;;;;6.65;4.32;;;9.50;99.90;;;;;;5035880;28;20065;-51
2023/11/08 00:46:08;;;;;;;8.52;3.83;;;9.50;99.90;;;;;;5036277;28;20029;-50
2023/11/08 00:48:34;;;;;;;8.27;4.70;;;9.50;99.90;;;;;;5035962;28;20048;-52
2023/11/08 00:51:01;;;;;;;8.27;4.25;;;9.50;99.90;;;;;;5035960;28;20037;-51
2023/11/08 00:53:27;;;;;;;6.75;4.15;;;9.50;99.90;;;;;;5035904;28;20037;-51
2023/11/08 00:55:52;;;;;;;5.85;3.85;;;9.50;99.90;;;;;;5035831;28;20393;-56
2023/11/08 00:58:18;;;;;;;11.20;4.55;;;9.50;99.90;;;;;;5035734;28;20029;-54
2023/11/08 01:00:44;;;;;;;11.02;4.05;;;9.50;99.90;;;;;;5035595;28;20025;-52
2023/11/08 01:03:12;;;;;;;8.23;3.70;;;9.50;99.90;;;;;;5035910;28;20026;-52
2023/11/08 01:05:38;;;;;;;7.75;3.47;;;9.50;99.90;;;;;;5035507;28;20045;-53
2023/11/08 01:08:04;;;;;;;8.48;4.07;;;9.50;99.90;;;;;;5035532;28;20029;-46
2023/11/08 01:10:29;;;;;;;6.95;3.30;;;9.50;99.90;;;;;;5035528;28;20553;-51
2023/11/08 01:12:55;;;;;;;8.60;3.53;;;9.50;99.90;;;;;;5035394;28;20540;-53
2023/11/08 01:15:23;;;;;;;6.93;3.63;;;9.50;99.90;;;;;;5044187;28;20489;-53
2023/11/08 01:17:50;;;;;;;4.65;3.35;;;9.50;99.90;;;;;;5043239;28;20532;-41
2023/11/08 01:20:16;;;;;;;7.57;3.65;;;9.50;99.90;;;;;;5035621;28;20033;-39
2023/11/08 01:22:41;;;;;;;10.88;4.38;;;9.50;99.90;;;;;;5042544;28;20366;-39
2023/11/08 01:25:08;;;;;;;6.80;3.70;;;9.50;99.90;;;;;;5055203;28;20033;-41
2023/11/08 01:27:34;;;;;;;8.75;3.60;;;9.50;99.90;;;;;;5055374;28;20032;-38
2023/11/08 01:30:01;;;;;;;8.48;3.50;;;9.60;99.90;;;;;;5053956;28;20025;-40
2023/11/08 01:32:27;;;;;;;4.28;3.30;;;9.60;99.90;;;;;;5055056;28;20025;-40
2023/11/08 01:34:52;;;;;;;7.28;2.85;;;9.60;99.90;;;;;;5043232;28;20048;-39
2023/11/08 01:37:18;;;;;;;8.68;3.65;;;9.60;99.90;;;;;;5035057;28;20020;-52
2023/11/08 01:39:44;;;;;;;5.05;2.97;;;9.60;99.90;;;;;;5034949;28;20103;-54
2023/11/08 01:42:10;;;;;;;4.13;2.35;;;9.60;99.90;;;;;;5033694;28;20080;-52
2023/11/08 01:44:35;;;;;;;8.45;2.90;;;9.60;99.90;;;;;;5034924;28;20033;-53
2023/11/08 01:47:03;;;;;;;5.63;3.22;;;9.50;99.90;;;;;;5034846;28;20033;-53
2023/11/08 01:49:29;;;;;;;;;;;9.60;99.90;;;;;;5035250;28;20024;-52
2023/11/08 01:51:55;;;;;;;7.75;3.38;;;9.60;99.90;;;;;;5034655;28;19932;-51
2023/11/08 01:54:22;;;;;;;4.47;3.45;;;9.50;99.90;;;;;;5034730;28;20045;-53
2023/11/08 01:56:48;;;;;;;5.13;3.72;;;9.50;99.90;;;;;;5033487;28;20485;-52
2023/11/08 01:59:16;;;;;;;12.27;4.63;;;9.40;99.90;;;;;;5034644;28;20079;-53
2023/11/08 02:01:42;;;;;;;10.15;3.85;;;9.40;99.90;;;;;;5034448;28;20101;-53
2023/11/08 02:04:07;;;;;;;5.70;3.60;;;9.40;99.90;;;;;;5034071;28;20533;-70
2023/11/08 02:06:33;;;;;;;12.75;4.07;;;9.40;99.90;;;;;;5033291;28;20025;-52
2023/11/08 02:09:00;;;;;;;10.43;4.50;;;9.40;99.90;;;;;;5033828;28;20029;-55
2023/11/08 02:11:30;;;;;;;5.80;3.50;;;9.30;99.90;;;;;;5034373;28;20021;-54
2023/11/08 02:13:59;;;;;;;6.45;3.40;;;9.30;99.90;;;;;;5034295;28;20075;-54
2023/11/08 02:16:24;;;;;;;9.82;4.32;;;9.30;99.90;;;;;;5034255;28;20029;-55
2023/11/08 02:18:50;;;;;;;7.35;3.20;;;9.30;99.90;;;;;;5034279;28;20292;-53
2023/11/08 02:21:17;;;;;;;7.30;3.38;;;9.20;99.90;;;;;;5034479;28;20021;-54
2023/11/08 02:23:43;;;;;;;7.30;3.83;;;9.20;99.90;;;;;;5034229;28;20508;-51
2023/11/08 02:26:09;;;;;;;11.07;4.07;;;9.20;99.90;;;;;;5034262;28;20096;-66
2023/11/08 02:28:37;;;;;;;10.95;4.43;;;9.20;99.90;;;;;;5034078;28;20029;-52
2023/11/08 02:31:03;;;;;;;11.35;5.38;;;9.20;99.90;;;;;;5034017;28;20021;-55
2023/11/08 02:33:29;;;;;;;17.83;5.50;;;9.20;99.90;;;;;;5034120;28;20092;-53
2023/11/08 02:35:56;;;;;;;7.40;4.30;;;9.20;99.90;;;;;;5033807;28;20532;-53
2023/11/08 02:38:22;;;;;;;8.57;4.30;;;9.20;99.90;;;;;;5033872;28;20025;-53
2023/11/08 02:40:47;;;;;;;12.02;5.15;;;9.20;99.90;;;;;;5033874;28;20018;-54
2023/11/08 02:43:13;;;;;;;11.70;5.07;;;9.20;99.90;;;;;;5034017;28;20053;-53
2023/11/08 02:45:39;;;;;;;12.43;4.78;;;9.10;99.90;;;;;;5033760;28;20591;-53
2023/11/08 02:48:06;;;;;;;13.43;6.15;;;9.10;99.90;;;;;;5033746;28;20021;-52
2023/11/08 02:50:38;;;;;;;13.40;5.20;;;9.20;99.90;;;;;;5033675;28;20435;-53
2023/11/08 02:53:04;;;;;;;7.55;5.28;;;9.20;99.90;;;;;;5033473;28;20025;-54
2023/11/08 02:55:31;;;;;;;10.77;4.78;;;9.10;99.90;;;;;;5050759;28;20495;-55
2023/11/08 02:57:57;;;;;;;9.30;4.65;;;9.10;99.90;;;;;;5038509;28;20021;-53
2023/11/08 03:00:22;;;;;;;8.82;4.55;;;9.10;99.90;;;;;;5033274;28;20017;-55
2023/11/08 03:02:51;;;;;;;13.10;4.93;;;9.20;99.90;;;;;;5033419;28;20025;-52
2023/11/08 03:05:21;;;;;;;10.63;4.55;;;9.20;99.90;;;;;;5033340;28;20026;-57
2023/11/08 03:07:47;;;;;;;10.60;4.75;;;9.20;99.90;;;;;;5013944;28;20038;-53
2023/11/08 03:10:17;;;;;;;10.90;4.20;;;9.20;99.90;;;;;;5028751;28;20557;-55
2023/11/08 03:12:53;;;;;;;10.32;4.55;;;9.20;99.90;;;;;;5013532;28;20544;-53
2023/11/08 03:15:22;;;;;;;15.65;4.45;;;9.20;99.90;;;;;;5013486;28;20026;-53
2023/11/08 03:17:52;;;;;;;9.50;4.78;;;9.20;99.90;;;;;;5032393;28;20021;-54
2023/11/08 03:20:19;;;;;;;16.35;4.78;;;9.20;99.90;;;;;;5031913;28;20032;-65
2023/11/08 03:22:44;;;;;;;9.00;3.80;;;9.20;99.90;;;;;;5033107;28;20397;-51
2023/11/08 03:25:11;;;;;;;15.40;5.20;;;9.20;99.90;;;;;;5033103;28;20032;-53
2023/11/08 03:27:41;;;;;;;9.20;4.15;;;9.20;99.90;;;;;;5032035;28;20068;-51
2023/11/08 03:30:12;;;;;;;8.98;4.22;;;9.20;99.90;;;;;;5033035;28;20486;-54
2023/11/08 03:32:38;;;;;;;9.80;4.25;;;9.20;99.90;;;;;;5032827;28;20120;-51
2023/11/08 03:35:05;;;;;;;10.90;3.67;;;9.20;99.90;;;;;;5032711;28;20072;-54
2023/11/08 03:37:35;;;;;;;7.82;3.35;;;9.10;99.90;;;;;;5033175;28;20029;-53
2023/11/08 03:40:02;;;;;;;6.88;2.70;;;9.20;99.90;;;;;;5033195;28;20424;-53
2023/11/08 03:42:28;;;;;;;6.82;3.53;;;9.20;99.90;;;;;;5031135;28;20506;-54
2023/11/08 03:44:54;;;;;;;5.20;3.28;;;9.20;99.90;;;;;;5032887;28;20022;-53
2023/11/08 03:47:20;;;;;;;6.78;3.63;;;9.20;99.90;;;;;;5032765;28;20588;-50
2023/11/08 03:49:46;;;;;;;5.47;3.17;;;9.20;99.90;;;;;;5032857;28;20497;-53
2023/11/08 03:52:12;;;;;;;12.43;3.67;;;9.20;99.90;;;;;;5040832;28;20021;-52
2023/11/08 03:54:38;;;;;;;4.85;2.83;;;9.10;99.90;;;;;;5052475;28;20509;-51
2023/11/08 03:57:04;;;;;;;9.25;3.42;;;9.10;99.90;;;;;;5043461;28;20053;-54
2023/11/08 03:59:29;;;;;;;13.82;3.95;;;9.10;99.90;;;;;;5032731;28;20028;-55
2023/11/08 04:01:55;;;;;;;9.98;4.00;;;9.10;99.90;;;;;;5032722;28;20030;-39
2023/11/08 04:04:21;;;;;;;17.02;4.60;;;9.00;99.90;;;;;;5032666;28;20029;-42
2023/11/08 04:06:47;;;;;;;10.20;3.75;;;9.10;99.90;;;;;;5032711;28;20493;-53
2023/11/08 04:09:14;;;;;;;14.07;3.83;;;9.00;99.90;;;;;;5032605;28;20100;-40
2023/11/08 04:11:39;;;;;;;7.80;3.30;;;9.00;99.90;;;;;;5032660;28;20500;-40
2023/11/08 04:14:06;;;;;;;9.60;3.33;;;9.00;99.90;;;;;;5032543;28;20025;-54
2023/11/08 04:16:38;;;;;;;15.38;4.53;;;9.00;99.90;;;;;;5032563;28;20497;-40
2023/11/08 04:19:04;;;;;;;7.47;3.53;;;9.00;99.90;;;;;;5032865;28;20028;-39
2023/11/08 04:21:30;;;;;;;13.80;3.75;;;9.10;99.90;;;;;;5031245;28;20021;-39
2023/11/08 04:23:56;;;;;;;15.15;3.53;;;9.10;99.90;;;;;;5032651;28;20473;-39
2023/11/08 04:26:21;;;;;;;7.72;3.45;;;9.10;99.90;;;;;;5032500;28;20021;-50
2023/11/08 04:28:47;;;;;;;5.85;2.90;;;9.10;99.90;;;;;;5032424;28;20036;-48
2023/11/08 04:31:13;;;;;;;11.60;4.05;;;9.10;99.90;;;;;;5032394;28;20412;-50
2023/11/08 04:33:39;;;;;;;13.38;4.05;;;9.10;99.90;;;;;;5032310;28;20086;-50
2023/11/08 04:36:08;;;;;;;13.60;3.92;;;9.10;99.90;;;;;;5032308;28;20553;-50
2023/11/08 04:38:34;;;;;;;6.35;3.95;;;9.10;99.90;;;;;;5032616;28;20475;-50
2023/11/08 04:40:59;;;;;;;16.92;4.25;;;9.10;99.90;;;;;;5032494;28;20076;-52
2023/11/08 04:43:25;;;;;;;14.80;4.15;;;9.10;99.90;;;;;;5032371;28;20083;-52
2023/11/08 04:45:50;;;;;;;14.70;3.97;;;9.00;99.90;;;;;;5032254;28;20026;-51
2023/11/08 04:48:17;;;;;;;8.65;3.20;;;9.00;99.90;;;;;;5032264;28;20148;-53
2023/11/08 04:50:42;;;;;;;10.70;3.33;;;9.10;99.90;;;;;;5032216;28;20025;-63
2023/11/08 04:53:08;;;;;;;8.32;3.90;;;9.00;99.90;;;;;;5032951;28;20083;-52
2023/11/08 04:55:34;;;;;;;10.82;4.00;;;9.00;99.90;;;;;;5035771;28;20104;-50
2023/11/08 04:57:59;;;;;;;11.98;3.80;;;9.00;99.90;;;;;;5035608;28;20022;-53
2023/11/08 05:00:25;;;;;;;10.70;3.47;;;9.00;99.90;;;;;;5035740;28;20014;-49
2023/11/08 05:02:51;;;;;;;13.48;3.38;;;9.00;99.90;;;;;;5035689;28;20104;-52
2023/11/08 05:05:17;;;;;;;14.70;3.30;;;9.00;99.90;;;;;;5035680;28;20040;-52
2023/11/08 05:07:43;;;;;;;7.03;2.90;;;9.00;99.90;;;;;;5035653;28;20021;-68
2023/11/08 05:10:09;;;;;;;7.75;2.72;;;9.10;99.90;;;;;;5035575;28;20029;-47
2023/11/08 05:12:35;;;;;;;7.25;2.80;;;9.10;99.90;;;;;;5035588;28;20029;-53
2023/11/08 05:15:01;;;;;;;5.95;2.78;;;9.00;99.90;;;;;;5035520;28;20386;-51
2023/11/08 05:17:27;;;;;;;8.40;2.78;;;9.10;99.90;;;;;;5035448;28;20099;-53
2023/11/08 05:19:53;;;;;;;4.63;2.67;;;9.10;99.90;;;;;;5035352;28;20421;-52
2023/11/08 05:22:18;;;;;;;4.57;2.33;;;9.10;99.90;;;;;;5035583;28;20474;-52
2023/11/08 05:24:44;;;;;;;11.70;3.38;;;9.20;99.90;;;;;;5035273;28;20025;-53
2023/11/08 05:27:11;;;;;;;9.82;2.78;;;9.20;99.90;;;;;;5035257;28;20032;-52
2023/11/08 05:29:37;;;;;;;14.25;2.38;;;9.20;99.90;;;;;;5033920;28;20401;-53
2023/11/08 05:32:03;;;;;;;8.43;2.25;;;9.20;99.90;;;;;;5034962;28;20033;-55
2023/11/08 05:34:29;;;;;;;8.40;2.00;;;9.10;99.90;;;;;;5033516;28;20053;-51
2023/11/08 05:36:55;;;;;;;9.80;2.38;;;9.10;99.90;;;;;;5035539;28;20069;-41
2023/11/08 05:39:22;;;;;;;3.42;2.35;;;9.10;99.90;;;;;;5035132;28;20100;-39
2023/11/08 05:41:48;;;;;;;3.10;1.50;;;9.10;99.90;;;;;;5035284;28;20425;-38
2023/11/08 05:44:15;;;;;;;5.05;1.80;;;9.10;99.90;;;;;;5035127;28;20529;-38
2023/11/08 05:46:41;;;;;;;9.23;1.83;;;9.10;99.90;;;;;;5034916;28;20486;-38
2023/11/08 05:49:08;;;;;;;2.30;1.23;;;9.00;99.90;;;;;;5034769;28;20033;-38
2023/11/08 05:54:17;;;;;;;6.63;1.75;;;9.00;99.90;;;;;;5050251;28;20517;-37
2023/11/08 05:56:43;;;;;;;6.45;2.03;;;9.10;99.90;;;;;;5034951;28;20021;-37
2023/11/08 05:59:09;;;;;;;5.45;1.65;;;9.10;99.90;;;;;;5034655;28;20440;-37
2023/11/08 06:01:34;;;;;;;9.70;3.15;;;9.00;99.90;;;;;;5034645;28;20025;-38
2023/11/08 06:04:00;;;;;;;5.93;2.05;;;9.00;99.90;;;;;;5034228;28;20103;-38
2023/11/08 06:06:27;;;;;;;3.22;1.90;;;9.00;99.90;;;;;;5034428;28;20508;-37
2023/11/08 06:08:53;;;;;;;5.45;2.00;;;9.00;99.90;;;;;;5034755;28;20367;-47
2023/11/08 06:11:19;;;;;;;4.32;2.13;;;9.10;99.90;;;;;;5034642;28;20079;-38
2023/11/08 06:13:45;;;;;;;4.63;1.98;;;9.00;99.90;;;;;;5034397;28;20033;-37
2023/11/08 06:16:11;;;;;;;8.77;2.80;;;9.00;99.90;;;;;;5034417;28;20055;-37
2023/11/08 06:18:37;;;;;;;9.70;1.88;;;9.00;99.90;;;;;;5033068;28;20038;-37
2023/11/08 06:21:03;;;;;;;9.93;1.75;;;8.90;99.90;;;;;;5032979;28;20075;-47
2023/11/08 06:23:30;;;;;;;12.20;2.28;;;8.90;99.90;;;;;;5034089;28;20097;-36
2023/11/08 06:25:56;;;;;;;5.93;2.20;;;8.90;99.90;;;;;;5034527;28;20029;-36
2023/11/08 06:28:22;;;;;;;6.68;1.67;;;8.90;99.90;;;;;;5032885;28;20060;-36
2023/11/08 06:30:48;;;;;;;7.78;1.98;;;8.90;99.90;;;;;;5034163;28;20512;-36
2023/11/08 06:33:14;;;;;;;8.77;2.42;;;8.90;99.90;;;;;;5033981;28;20064;-39
2023/11/08 06:35:41;;;;;;;2.85;1.88;;;8.90;99.90;;;;;;5033725;28;20077;-35
2023/11/08 06:38:07;;;;;;;10.48;2.20;;;8.90;99.90;;;;;;5033948;28;20513;-36
2023/11/08 06:40:32;;;;;;;16.27;1.90;;;8.90;99.90;;;;;;5033766;28;20033;-37
2023/11/08 06:42:58;;;;;;;3.80;2.17;;;8.80;99.90;;;;;;5033916;28;20025;-36
2023/11/08 06:45:24;;;;;;;4.47;2.13;;;8.80;99.90;;;;;;5033684;28;20513;-36
2023/11/08 06:47:49;;;;;;;12.27;2.38;;;8.80;99.90;;;;;;5033899;28;20404;-36
2023/11/08 06:50:16;;;;;;;6.65;2.22;;;8.80;99.90;;;;;;5048854;28;20132;-36
2023/11/08 06:52:42;;;;;;;5.78;2.33;;;8.80;99.90;;;;;;5053967;28;20500;-39
2023/11/08 06:55:08;;;;;;;2.85;2.47;;;8.80;99.90;;;;;;5041991;28;20029;-37
2023/11/08 06:57:34;;;;;;;5.63;2.33;;;8.80;99.90;;;;;;5033526;28;20032;-37
2023/11/08 07:00:00;;;;;;;7.95;1.80;;;8.80;99.90;;;;;;5033769;28;20462;-37
2023/11/08 07:02:27;;;;;;;6.80;1.95;;;8.70;99.90;;;;;;5033864;28;20028;-36
2023/11/08 07:04:52;;;;;;;5.28;2.58;;;8.70;99.90;;;;;;5033444;28;20047;-46
2023/11/08 07:07:18;;;;;;;3.33;2.40;;;8.70;99.90;;;;;;5033410;28;20021;-37
2023/11/08 07:09:44;;;;;;;5.68;2.25;;;8.70;99.90;;;;;;5033370;28;20087;-36
2023/11/08 07:12:10;;;;;;;5.07;2.08;;;8.70;99.90;;;;;;5031960;28;20389;-36
2023/11/08 07:14:36;;;;;;;4.63;2.30;;;8.70;99.90;;;;;;5033003;28;20013;-36
2023/11/08 07:17:03;;;;;;;6.43;1.42;;;8.70;99.90;;;;;;5032724;28;20425;-36
2023/11/08 07:19:29;;;;;;;6.78;2.28;;;8.70;99.90;;;;;;5033074;28;20030;-36
2023/11/08 07:21:55;;;;;;;4.90;2.10;;;8.70;99.90;;;;;;5033146;28;20474;-35
2023/11/08 07:24:22;;;;;;;6.35;1.90;;;8.70;99.90;;;;;;5033100;28;20445;-35
2023/11/08 07:26:49;;;;;;;3.47;1.77;;;8.80;99.90;;;;;;5033051;28;20017;-35
2023/11/08 07:29:16;;;;;;;7.60;2.35;;;8.70;99.90;;;;;;5031966;28;20036;-35
2023/11/08 07:31:41;;;;;;;4.35;2.00;;;8.70;99.90;;;;;;5032809;28;20156;-36
2023/11/08 07:34:07;;;;;;;3.28;1.33;;;8.80;99.90;;;;;;5032752;28;20549;-36
2023/11/08 07:36:34;;;;;;;10.85;1.92;;;8.80;99.90;;;;;;5032989;28;20045;-36
2023/11/08 07:39:02;;;;;;;3.60;1.70;;;8.90;99.90;;;;;;5032996;28;20021;-35
2023/11/08 07:41:31;;;;;;;2.47;1.52;;;8.90;99.90;;;;;;5033221;28;20474;-36
2023/11/08 07:43:57;;;;;;;7.15;2.08;;;9.00;99.90;;;;;;5030018;28;20060;-36
2023/11/08 07:46:25;;;;;;;4.22;1.48;;;9.00;99.90;;;;;;5032338;28;20112;-36
2023/11/08 07:48:55;;;;;;;8.20;1.95;;;9.00;99.90;;;;;;5032076;28;20022;-36
2023/11/08 07:51:22;;;;;;;9.55;1.92;;;9.10;99.90;;;;;;5028551;28;20033;-36
2023/11/08 07:53:49;;;;;;;5.70;1.80;;;9.10;99.90;;;;;;5030379;28;20021;-38
2023/11/08 07:56:16;;;;;;;7.70;2.22;;;9.20;99.90;;;;;;5030035;28;20060;-36
2023/11/08 07:58:42;;;;;;;6.30;1.50;;;9.30;99.90;;;;;;5032143;28;20026;-36
2023/11/08 08:01:09;;;;;;;7.47;1.75;;;9.30;99.90;;;;;;5029067;28;20437;-37
2023/11/08 08:03:35;;;;;;;4.72;1.88;;;9.30;99.90;;;;;;5030575;28;20118;-36
2023/11/08 08:06:03;;;;;;;3.22;1.95;;;9.30;99.90;;;;;;5032447;28;20029;-35
2023/11/08 08:08:30;;;;;;;5.13;1.67;;;9.40;99.90;;;;;;5032483;28;20017;-35
2023/11/08 08:10:55;;;;;;;4.65;1.48;;;9.40;99.90;;;;;;5031342;28;20136;-35
2023/11/08 08:13:21;;;;;;;3.25;1.65;;;9.40;99.90;;;;;;5032652;28;20029;-35
2023/11/08 08:15:48;;;;;;;2.70;1.95;;;9.30;99.90;;;;;;5031230;28;20398;-35
2023/11/08 08:18:14;;;;;;;5.10;1.75;;;9.30;99.90;;;;;;5031689;28;20021;-35
2023/11/08 08:20:40;;;;;;;4.28;2.03;;;9.30;99.90;;;;;;5029701;28;20091;-34
2023/11/08 08:23:09;;;;;;;3.47;1.80;;;9.30;99.90;;;;;;5029729;28;20390;-36
2023/11/08 08:25:40;;;;;;;3.10;1.40;;;9.30;99.90;;;;;;5032179;28;20025;-35
2023/11/08 08:28:06;;;;;;;6.47;2.05;;;9.40;99.90;;;;;;5032352;28;20061;-36
2023/11/08 08:30:33;;;;;;;3.92;1.80;;;9.40;99.90;;;;;;5036386;28;20017;-36
2023/11/08 08:33:00;;;;;;;13.43;3.92;;;9.40;99.90;;;;;;5036324;28;20025;-36
2023/11/08 08:35:27;;;;;;;3.45;1.83;;;9.40;99.90;;;;;;5035997;28;20054;-37
2023/11/08 08:37:52;;;;;;;1.98;1.30;;;9.40;99.90;;;;;;5036170;28;20512;-37
2023/11/08 08:40:18;;;;;;;2.03;1.23;;;9.40;99.90;;;;;;5036023;28;20021;-37
2023/11/08 08:42:44;;;;;;;6.07;1.75;;;9.40;99.90;;;;;;5036152;28;20064;-36
2023/11/08 08:45:10;;;;;;;4.35;1.75;;;9.40;99.90;;;;;;5036070;28;20389;-36
2023/11/08 08:47:37;;;;;;;6.93;1.73;;;9.40;99.90;;;;;;5035946;28;20359;-36
2023/11/08 08:50:05;;;;;;;2.42;1.40;;;9.40;99.90;;;;;;5033422;28;20478;-38
2023/11/08 08:52:31;;;;;;;3.72;1.70;;;9.50;99.90;;;;;;5034046;28;20478;-36
2023/11/08 08:54:57;;;;;;;7.65;1.83;;;9.60;99.90;;;;;;5033091;28;20021;-34
2023/11/08 08:57:23;;;;;;;8.27;1.95;;;9.70;99.90;;;;;;5034773;28;20397;-36
2023/11/08 08:59:49;;;;;;;7.30;1.80;;;9.60;99.90;;;;;;5030938;28;20029;-36
2023/11/08 09:02:15;;;;;;;5.28;1.40;;;9.70;99.90;;;;;;5034655;28;20474;-36
2023/11/08 09:04:41;;;;;;;2.47;1.60;;;9.80;99.90;;;;;;5031282;28;20016;-46
2023/11/08 09:07:07;;;;;;;5.13;1.75;;;9.80;99.90;;;;;;5023572;28;20043;-36
2023/11/08 09:09:33;;;;;;;4.53;1.70;;;9.80;99.90;;;;;;5035639;28;20029;-42
2023/11/08 09:11:59;;;;;;;6.60;1.90;;;9.80;99.90;;;;;;5035525;28;20029;-36
2023/11/08 09:14:25;;;;;;;10.02;1.83;;;9.90;99.90;;;;;;5034013;28;20442;-36
2023/11/08 09:16:50;;;;;;;6.13;1.65;;;9.90;99.90;;;;;;5015711;28;20394;-36
2023/11/08 09:19:17;;;;;;;7.93;1.95;;;10.00;99.90;;;;;;5016889;28;20403;-36
2023/11/08 09:21:44;;;;;;;9.43;1.73;;;10.00;99.90;;;;;;5047775;28;20386;-38
2023/11/08 09:24:10;;;;;;;4.13;1.85;;;10.10;99.90;;;;;;5034657;28;20029;-36
2023/11/08 09:26:36;;;;;;;4.03;2.00;;;10.20;99.90;;;;;;5033988;28;20462;-35
2023/11/08 09:29:03;;;;;;;7.32;2.03;;;10.30;99.90;;;;;;5032905;28;20025;-37
2023/11/08 09:31:29;;;;;;;4.78;1.80;;;10.40;99.90;;;;;;5032885;28;20018;-38
2023/11/08 09:33:56;;;;;;;3.13;1.55;;;10.50;99.90;;;;;;5033990;28;20478;-36
2023/11/08 09:36:25;;;;;;;5.90;1.60;;;10.50;99.90;;;;;;5033788;28;20037;-37
2023/11/08 09:38:50;;;;;;;7.63;1.80;;;10.40;99.90;;;;;;5031440;28;20302;-36
2023/11/08 09:41:18;;;;;;;9.00;1.60;;;10.40;99.90;;;;;;5032905;28;20026;-37
2023/11/08 09:43:49;;;;;;;3.92;1.73;;;10.30;99.90;;;;;;5035016;28;20017;-37
2023/11/08 09:46:16;;;;;;;6.00;1.73;;;10.30;99.90;;;;;;5033659;28;20025;-41
2023/11/08 09:48:44;;;;;;;6.13;1.63;;;10.30;99.90;;;;;;5029245;28;20033;-37
2023/11/08 09:51:14;;;;;;;2.40;1.48;;;10.20;99.90;;;;;;5030191;28;20528;-37
2023/11/08 09:53:42;;;;;;;12.73;2.60;;;10.20;99.90;;;;;;5026987;28;20022;-37
2023/11/08 09:56:09;;;;;;;6.25;2.45;;;10.20;99.90;;;;;;5033183;28;20025;-35
2023/11/08 09:58:37;;;;;;;12.82;2.13;;;10.20;99.90;;;;;;5031744;28;20025;-37
2023/11/08 10:01:05;;;;;;;2.95;1.80;;;10.30;99.90;;;;;;5031782;28;20021;-38
2023/11/08 10:03:32;;;;;;;5.85;2.30;;;10.20;99.90;;;;;;5018675;28;20036;-36
2023/11/08 10:05:59;;;;;;;6.85;1.90;;;10.30;99.90;;;;;;5032179;28;20486;-38
2023/11/08 10:08:25;;;;;;;11.02;2.10;;;10.20;99.90;;;;;;5031392;28;20092;-36
2023/11/08 10:10:54;;;;;;;7.13;2.30;;;10.30;99.90;;;;;;5033062;28;20112;-36
2023/11/08 10:13:20;;;;;;;9.18;1.70;;;10.30;99.90;;;;;;5033543;28;20060;-35
2023/11/08 10:15:56;;;;;;;8.35;1.48;;;10.30;99.90;;;;;;5034311;28;20438;-36
2023/11/08 10:18:28;;;;;;;9.20;2.63;;;10.40;99.90;;;;;;5034170;28;20020;-38
2023/11/08 10:20:59;;;;;;;7.28;3.53;;;10.40;99.90;;;;;;5032823;28;20021;-38
2023/11/08 10:23:26;;;;;;;3.40;1.63;;;10.50;99.90;;;;;;5033048;28;20017;-37
2023/11/08 10:26:12;;;;;;;10.15;2.13;;;10.50;99.90;;;;;;5032737;28;20025;-37
2023/11/08 10:29:03;;;;;;;9.00;2.70;;;10.50;99.90;;;;;;5034405;28;20079;-39
2023/11/08 10:31:36;;;;;;;8.57;2.28;;;10.50;99.90;;;;;;5033934;28;20025;-38
2023/11/08 10:34:04;;;;;;;9.93;1.98;;;10.50;99.90;;;;;;5033703;28;20045;-38
2023/11/08 10:36:32;;;;;;;9.98;2.00;;;10.50;99.90;;;;;;5033887;28;20037;-38
2023/11/08 10:38:58;;;;;;;11.00;1.80;;;10.50;99.90;;;;;;5033767;28;20474;-37
2023/11/08 10:41:24;;;;;;;7.47;1.70;;;10.50;99.90;;;;;;5033786;28;20466;-39
2023/11/08 10:44:07;;;;;;;8.30;1.88;;;10.60;99.90;;;;;;5033746;28;20409;-38
2023/11/08 10:46:34;;;;;;;8.45;1.73;;;10.80;99.90;;;;;;5033967;28;20033;-38
2023/11/08 10:49:01;;;;;;;3.63;1.65;;;10.90;99.90;;;;;;5033627;28;20017;-38
2023/11/08 10:51:27;;;;;;;8.35;1.98;;;11.00;99.90;;;;;;5032651;28;20017;-37
2023/11/08 10:53:56;;;;;;;7.20;1.98;;;11.00;99.90;;;;;;5032256;28;20032;-39
2023/11/08 10:56:23;;;;;;;7.13;2.10;;;11.00;99.90;;;;;;5028716;28;20385;-40
2023/11/08 10:58:50;;;;;;;3.00;1.10;;;11.00;99.90;;;;;;5030776;28;20504;-40
2023/11/08 11:01:17;;;;;;;5.25;1.33;;;11.00;99.90;;;;;;5030846;28;20025;-40
2023/11/08 11:03:47;;;;;;;4.40;2.03;;;11.10;99.90;;;;;;5029517;28;20374;-39
2023/11/08 11:06:12;;;;;;;5.18;1.25;;;11.20;99.90;;;;;;5031767;28;20049;-40
2023/11/08 11:08:43;;;;;;;11.02;1.40;;;11.20;99.90;;;;;;5028930;28;20080;-43
2023/11/08 11:11:09;;;;;;;6.13;1.27;;;11.20;99.90;;;;;;5029590;28;20026;-40
2023/11/08 11:13:42;;;;;;;7.03;1.45;;;11.20;99.90;;;;;;5030506;28;20497;-41
2023/11/08 11:16:18;;;;;;;4.38;1.60;;;11.30;99.90;;;;;;5030632;28;20367;-40
2023/11/08 11:18:50;;;;;;;8.65;2.03;;;11.40;99.90;;;;;;5031816;28;20497;-40
2023/11/08 11:21:20;;;;;;;13.75;2.08;;;11.40;99.90;;;;;;5031704;28;20031;-37
2023/11/08 11:23:46;;;;;;;3.90;1.60;;;11.40;99.90;;;;;;5030518;28;20025;-36
2023/11/08 11:26:11;;;;;;;5.88;1.60;;;11.40;99.90;;;;;;5032201;28;20547;-42
2023/11/08 11:28:55;;;;;;;6.30;1.60;;;11.50;99.90;;;;;;5032737;28;20026;-54
2023/11/08 11:31:43;;;;;;;6.25;1.35;;;11.60;99.90;;;;;;5032946;28;20017;-52
2023/11/08 11:34:20;;;;;;;7.38;1.77;;;11.60;99.90;;;;;;5032800;28;20104;-54
2023/11/08 11:39:31;;;;;;;4.68;1.80;;;11.70;99.90;;;;;;5013381;28;20041;-55
2023/11/08 11:42:04;;;;;;;7.30;1.42;;;11.70;99.90;;;;;;5012190;28;20022;-54
2023/11/08 11:44:56;;;;;;;7.88;2.13;;;11.60;99.90;;;;;;5026610;28;20029;-55
2023/11/08 11:47:28;;;;;;;5.95;2.03;;;11.50;99.90;;;;;;5035283;28;20047;-55
2023/11/08 11:50:07;;;;;;;9.00;1.38;;;11.40;99.90;;;;;;5052913;28;20425;-55
2023/11/08 11:52:36;;;;;;;3.50;1.30;;;11.40;99.90;;;;;;5042385;28;20029;-54
2023/11/08 11:55:05;;;;;;;12.07;1.90;;;11.50;99.90;;;;;;5032458;28;20025;-53
2023/11/08 11:57:32;;;;;;;14.95;2.08;;;11.50;99.90;;;;;;5032408;28;20144;-51
2023/11/08 11:59:59;;;;;;;4.30;1.67;;;11.60;99.90;;;;;;5032578;28;20109;-53
2023/11/08 12:02:28;;;;;;;9.47;2.13;;;11.60;99.90;;;;;;5034164;28;20767;-53
2023/11/08 12:04:56;;;;;;;6.28;1.73;;;11.60;99.90;;;;;;5036551;28;20516;-55
2023/11/08 12:07:22;;;;;;;8.20;1.83;;;11.60;99.90;;;;;;5036506;28;20485;-53
2023/11/08 12:09:48;;;;;;;7.10;1.85;;;11.60;99.90;;;;;;5036650;28;20017;-54
2023/11/08 12:12:26;;;;;;;13.65;1.90;;;11.50;99.90;;;;;;5036542;28;20033;-54
2023/11/08 12:14:52;;;;;;;8.35;2.10;;;11.50;99.90;;;;;;5036838;28;20474;-54
2023/11/08 12:17:18;;;;;;;8.25;2.53;;;11.50;99.90;;;;;;5036349;28;20493;-53
2023/11/08 12:19:44;;;;;;;12.15;1.80;;;11.40;99.90;;;;;;5036242;28;20028;-54
2023/11/08 12:22:10;;;;;;;7.05;1.90;;;11.40;99.90;;;;;;5036810;28;20477;-54
2023/11/08 12:24:37;;;;;;;7.72;1.90;;;11.40;99.90;;;;;;5036356;28;20025;-54
2023/11/08 12:27:04;;;;;;;2.95;1.55;;;11.40;99.90;;;;;;5036650;28;20493;-54
2023/11/08 12:29:31;;;;;;;6.83;1.83;;;11.40;99.90;;;;;;5036378;28;20026;-51
2023/11/08 12:31:57;;;;;;;4.18;1.50;;;11.30;99.90;;;;;;5036296;28;20264;-54
2023/11/08 12:34:25;;;;;;;6.38;1.92;;;11.40;99.90;;;;;;5036053;28;20026;-53
2023/11/08 12:36:52;;;;;;;4.68;1.63;;;11.40;99.90;;;;;;5036294;28;20512;-52
2023/11/08 12:39:25;;;;;;;9.35;2.33;;;11.40;99.90;;;;;;5034955;28;20037;-52
2023/11/08 12:41:54;;;;;;;7.93;1.60;;;11.40;99.90;;;;;;5036383;28;20462;-53
2023/11/08 12:44:21;;;;;;;7.40;1.65;;;11.40;99.90;;;;;;5036042;28;20052;-52
2023/11/08 12:46:59;;;;;;;8.73;1.40;;;11.40;99.90;;;;;;5036343;28;20030;-51
2023/11/08 12:49:32;;;;;;;3.20;1.50;;;11.40;99.90;;;;;;5035554;28;20040;-52
2023/11/08 12:52:05;;;;;;;4.60;1.48;;;11.30;99.90;;;;;;5035708;28;20032;-54
2023/11/08 12:54:31;;;;;;;5.95;1.65;;;11.20;99.90;;;;;;5035281;28;20473;-51
2023/11/08 12:56:57;;;;;;;2.17;1.40;;;11.10;99.90;;;;;;5035570;28;20087;-51
2023/11/08 12:59:23;;;;;;;7.30;1.85;;;11.10;99.90;;;;;;5035654;28;20520;-52